Time;durP1;ratioP1;P1;durP2;ratioP2;P2;SDS_P1;SDS_P2;PMS_P1;PMS_P2;Temp;Humidity;BMP_temperature;BMP_pressure;BME280_temperature;BME280_humidity;BME280_pressure;Samples;Min_cycle;Max_cycle;Signal;HPM_P1;HPM_P2
2021/05/20 00:00:24;;;;;;;20.20;16.93;;;10.20;99.90;;;;;;4981831;28;20475;-68
2021/05/20 00:02:52;;;;;;;22.60;16.07;;;10.20;99.90;;;;;;4981791;28;20446;-68
2021/05/20 00:05:19;;;;;;;18.53;15.60;;;10.30;99.90;;;;;;4981757;28;20454;-68
2021/05/20 00:07:46;;;;;;;19.17;16.90;;;10.30;99.90;;;;;;4981809;28;20446;-67
2021/05/20 00:10:16;;;;;;;19.30;16.40;;;10.30;99.90;;;;;;4981950;28;21062;-68
2021/05/20 00:12:44;;;;;;;18.80;15.70;;;10.40;99.90;;;;;;4981649;28;20447;-68
2021/05/20 00:15:13;;;;;;;24.17;18.40;;;10.40;99.90;;;;;;4981544;28;20498;-67
2021/05/20 00:17:39;;;;;;;19.00;16.40;;;10.40;99.90;;;;;;4981676;28;20472;-68
2021/05/20 00:20:08;;;;;;;20.30;15.60;;;10.40;99.90;;;;;;4981724;28;20471;-67
2021/05/20 00:22:34;;;;;;;19.90;16.70;;;10.40;99.90;;;;;;4981635;28;20447;-67
2021/05/20 00:25:01;;;;;;;18.70;16.70;;;10.40;99.90;;;;;;4981624;28;20827;-67
2021/05/20 00:27:27;;;;;;;16.40;14.73;;;10.40;99.90;;;;;;4981212;28;20443;-68
2021/05/20 00:29:54;;;;;;;18.80;16.83;;;10.40;99.90;;;;;;4981517;28;20478;-67
2021/05/20 00:32:21;;;;;;;18.03;15.33;;;10.40;99.90;;;;;;4981412;28;20458;-67
2021/05/20 00:34:47;;;;;;;17.23;15.37;;;10.40;99.90;;;;;;4981377;28;20451;-67
2021/05/20 00:37:14;;;;;;;19.47;17.47;;;10.40;99.90;;;;;;4981157;28;20514;-66
2021/05/20 00:39:40;;;;;;;20.87;15.80;;;10.40;99.90;;;;;;4981028;28;20467;-67
2021/05/20 00:42:07;;;;;;;17.63;16.03;;;10.30;99.90;;;;;;4981216;28;20836;-67
2021/05/20 00:44:33;;;;;;;18.93;17.00;;;10.30;99.90;;;;;;4981277;28;20796;-67
2021/05/20 00:46:59;;;;;;;20.40;17.10;;;10.30;99.90;;;;;;4981350;28;20510;-67
2021/05/20 00:49:25;;;;;;;17.97;14.93;;;10.20;99.90;;;;;;4980702;28;20513;-67
2021/05/20 00:51:52;;;;;;;18.73;16.83;;;10.30;99.90;;;;;;4981084;28;20455;-68
2021/05/20 00:54:20;;;;;;;16.67;14.97;;;10.20;99.90;;;;;;4980797;28;20451;-67
2021/05/20 00:56:46;;;;;;;19.63;16.93;;;10.20;99.90;;;;;;4980975;28;20522;-68
2021/05/20 00:59:13;;;;;;;19.00;16.17;;;10.20;99.90;;;;;;4980751;28;20447;-67
2021/05/20 01:01:39;;;;;;;20.73;17.20;;;10.30;99.90;;;;;;4980658;28;20458;-67
2021/05/20 01:04:06;;;;;;;19.57;17.13;;;10.30;99.90;;;;;;4980762;28;20879;-67
2021/05/20 01:06:32;;;;;;;22.10;19.60;;;10.30;99.90;;;;;;4980473;28;20548;-67
2021/05/20 01:08:58;;;;;;;18.93;16.90;;;10.30;99.90;;;;;;4980388;28;20451;-67
2021/05/20 01:11:25;;;;;;;21.57;17.80;;;10.40;99.90;;;;;;4980531;28;20474;-67
2021/05/20 01:13:51;;;;;;;20.30;17.83;;;10.40;99.90;;;;;;4980618;28;20458;-68
2021/05/20 01:16:17;;;;;;;20.63;18.43;;;10.40;99.90;;;;;;4980661;28;20498;-67
2021/05/20 01:18:44;;;;;;;21.27;19.10;;;10.40;99.90;;;;;;4980703;28;20463;-67
2021/05/20 01:21:11;;;;;;;22.20;20.00;;;10.40;99.90;;;;;;4980556;28;20967;-67
2021/05/20 01:23:37;;;;;;;20.97;18.60;;;10.40;99.90;;;;;;4980541;28;20454;-67
2021/05/20 01:26:04;;;;;;;20.40;16.83;;;10.30;99.90;;;;;;4980544;28;20525;-67
2021/05/20 01:28:33;;;;;;;23.30;17.50;;;10.30;99.90;;;;;;4980358;28;20450;-67
2021/05/20 01:30:59;;;;;;;22.10;19.83;;;10.30;99.90;;;;;;4980440;28;20474;-67
2021/05/20 01:33:26;;;;;;;22.10;19.80;;;10.30;99.90;;;;;;4980331;28;21034;-66
2021/05/20 01:35:52;;;;;;;22.70;19.17;;;10.30;99.90;;;;;;4980238;28;20595;-67
2021/05/20 01:38:42;;;;;;;24.13;19.63;;;10.30;99.90;;;;;;4980195;28;20454;-67
2021/05/20 01:41:10;;;;;;;23.27;20.87;;;10.30;99.90;;;;;;4980225;28;20490;-67
2021/05/20 01:43:37;;;;;;;27.30;21.67;;;10.30;99.90;;;;;;4980406;28;20493;-67
2021/05/20 01:46:05;;;;;;;23.00;20.10;;;10.20;99.90;;;;;;4980160;28;20822;-67
2021/05/20 01:48:34;;;;;;;32.87;21.33;;;10.20;99.90;;;;;;4979841;28;20455;-66
2021/05/20 01:51:03;;;;;;;22.73;20.37;;;10.20;99.90;;;;;;4980048;28;20470;-67
2021/05/20 01:53:30;;;;;;;20.27;17.93;;;10.20;99.90;;;;;;4980295;28;20453;-67
2021/05/20 01:55:57;;;;;;;23.77;20.50;;;10.20;99.90;;;;;;4980068;28;20483;-67
2021/05/20 01:58:23;;;;;;;23.07;20.57;;;10.10;99.90;;;;;;4980008;28;20454;-67
2021/05/20 02:00:49;;;;;;;26.90;21.63;;;10.10;99.90;;;;;;4980153;28;20494;-67
2021/05/20 02:03:16;;;;;;;25.20;21.43;;;10.20;99.90;;;;;;4980417;28;20457;-68
2021/05/20 02:05:42;;;;;;;26.30;21.87;;;10.20;99.90;;;;;;4980183;28;20443;-67
2021/05/20 02:08:08;;;;;;;24.93;20.63;;;10.20;99.90;;;;;;4979857;28;20974;-68
2021/05/20 02:10:35;;;;;;;23.63;21.17;;;10.20;99.90;;;;;;4980058;28;21302;-67
2021/05/20 02:13:01;;;;;;;23.27;20.93;;;10.20;99.90;;;;;;4979801;28;20844;-67
2021/05/20 02:15:28;;;;;;;29.10;22.23;;;10.20;99.90;;;;;;4980209;28;20773;-67
2021/05/20 02:17:54;;;;;;;24.30;20.20;;;10.20;99.90;;;;;;4979957;28;20754;-67
2021/05/20 02:20:21;;;;;;;26.83;23.20;;;10.20;99.90;;;;;;4983666;28;20471;-67
2021/05/20 02:22:49;;;;;;;27.80;22.17;;;10.20;99.90;;;;;;4983770;28;20457;-67
2021/05/20 02:25:15;;;;;;;27.60;22.10;;;10.20;99.90;;;;;;4984235;28;20453;-68
2021/05/20 02:27:42;;;;;;;32.43;21.93;;;10.10;99.90;;;;;;4983598;28;20473;-67
2021/05/20 02:30:10;;;;;;;28.40;23.73;;;10.10;99.90;;;;;;4983620;28;20475;-67
2021/05/20 02:32:36;;;;;;;32.40;24.97;;;10.00;99.90;;;;;;4983482;28;20854;-68
2021/05/20 02:35:03;;;;;;;27.53;24.53;;;10.00;99.90;;;;;;4983506;28;20457;-67
2021/05/20 02:37:30;;;;;;;27.87;23.37;;;10.00;99.90;;;;;;4983437;28;20492;-67
2021/05/20 02:39:56;;;;;;;36.13;29.67;;;10.00;99.90;;;;;;4983479;28;20910;-67
2021/05/20 02:42:22;;;;;;;29.23;24.70;;;9.90;99.90;;;;;;4983496;28;20454;-67
2021/05/20 02:44:49;;;;;;;29.13;24.17;;;9.90;99.90;;;;;;4983551;28;20477;-68
2021/05/20 02:47:15;;;;;;;36.13;26.77;;;9.80;99.90;;;;;;4983484;28;20455;-67
2021/05/20 02:49:43;;;;;;;29.97;26.00;;;9.70;99.90;;;;;;4983480;28;20482;-67
2021/05/20 02:52:09;;;;;;;34.67;28.00;;;9.70;99.90;;;;;;4983476;28;20459;-67
2021/05/20 02:54:35;;;;;;;37.13;27.50;;;9.60;99.90;;;;;;4983499;28;20461;-67
2021/05/20 02:57:02;;;;;;;33.60;25.37;;;9.60;99.90;;;;;;4983356;28;20493;-67
2021/05/20 02:59:28;;;;;;;31.83;25.10;;;9.50;99.90;;;;;;4982930;28;20470;-67
2021/05/20 03:02:02;;;;;;;32.70;24.77;;;9.50;99.90;;;;;;4983215;28;21226;-67
2021/05/20 03:04:28;;;;;;;35.67;26.10;;;9.40;99.90;;;;;;4982941;28;20549;-66
2021/05/20 03:06:55;;;;;;;33.03;25.50;;;9.30;99.90;;;;;;4983035;28;20911;-66
2021/05/20 03:09:21;;;;;;;39.70;29.90;;;9.30;99.90;;;;;;4982549;28;20924;-68
2021/05/20 03:11:47;;;;;;;38.87;30.43;;;9.20;99.90;;;;;;4982943;28;20451;-67
2021/05/20 03:14:14;;;;;;;44.53;32.67;;;9.20;99.90;;;;;;4982902;28;20516;-66
2021/05/20 03:16:40;;;;;;;43.77;33.43;;;9.10;99.90;;;;;;4982565;28;20969;-67
2021/05/20 03:19:07;;;;;;;52.07;36.13;;;9.10;99.90;;;;;;4982712;28;20455;-67
2021/05/20 03:21:33;;;;;;;44.10;31.10;;;9.00;99.90;;;;;;4982982;28;20469;-67
2021/05/20 03:23:59;;;;;;;47.57;35.13;;;9.00;99.90;;;;;;4982741;28;20902;-67
2021/05/20 03:26:25;;;;;;;53.97;37.63;;;9.00;99.90;;;;;;4982579;28;20447;-68
2021/05/20 03:28:52;;;;;;;54.97;37.07;;;9.00;99.90;;;;;;4982227;28;20558;-66
2021/05/20 03:31:18;;;;;;;53.97;37.50;;;9.00;99.90;;;;;;4982216;28;20475;-66
2021/05/20 03:33:44;;;;;;;54.90;36.03;;;9.00;99.90;;;;;;4982220;28;20957;-67
2021/05/20 03:36:11;;;;;;;54.20;40.33;;;9.00;99.90;;;;;;4982379;28;20548;-67
2021/05/20 03:38:37;;;;;;;45.40;31.97;;;9.10;99.90;;;;;;4982364;28;20450;-68
2021/05/20 03:41:04;;;;;;;55.07;33.80;;;9.10;99.90;;;;;;4982294;28;20974;-67
2021/05/20 03:43:31;;;;;;;48.80;33.93;;;9.20;99.90;;;;;;4982204;28;20767;-67
2021/05/20 03:45:57;;;;;;;49.40;32.47;;;9.20;99.90;;;;;;4982389;28;20453;-67
2021/05/20 03:48:23;;;;;;;48.27;33.30;;;9.30;99.90;;;;;;4982054;28;20451;-67
2021/05/20 03:50:50;;;;;;;48.53;35.17;;;9.40;99.90;;;;;;4982301;28;20989;-67
2021/05/20 03:53:17;;;;;;;48.83;32.60;;;9.40;99.90;;;;;;4981948;28;20446;-67
2021/05/20 03:55:44;;;;;;;54.37;36.90;;;9.50;99.90;;;;;;4981970;28;20509;-67
2021/05/20 03:58:10;;;;;;;50.27;33.20;;;9.50;99.90;;;;;;4981892;28;21077;-68
2021/05/20 04:00:37;;;;;;;54.97;37.90;;;9.50;99.90;;;;;;4982138;28;20478;-67
2021/05/20 04:03:03;;;;;;;53.87;36.47;;;9.60;99.90;;;;;;4981956;28;20453;-67
2021/05/20 04:05:29;;;;;;;54.10;34.90;;;9.60;99.90;;;;;;4981806;28;20447;-67
2021/05/20 04:07:55;;;;;;;53.67;37.90;;;9.70;99.90;;;;;;4981536;28;20493;-67
2021/05/20 04:10:24;;;;;;;49.73;34.33;;;9.80;99.90;;;;;;4981480;28;20475;-67
2021/05/20 04:12:50;;;;;;;46.20;34.40;;;9.80;99.90;;;;;;4981734;28;20450;-67
2021/05/20 04:15:17;;;;;;;51.57;38.50;;;9.90;99.90;;;;;;4981666;28;20451;-67
2021/05/20 04:17:43;;;;;;;52.03;37.30;;;9.90;99.90;;;;;;4981320;28;20486;-67
2021/05/20 04:20:11;;;;;;;53.23;36.70;;;10.00;99.90;;;;;;4981544;28;21159;-66
2021/05/20 04:22:37;;;;;;;51.57;38.67;;;10.00;99.90;;;;;;4981318;28;20818;-67
2021/05/20 04:25:04;;;;;;;53.23;39.60;;;10.10;99.90;;;;;;4981653;28;20873;-67
2021/05/20 04:27:31;;;;;;;63.73;39.37;;;10.10;99.90;;;;;;4981407;28;20443;-66
2021/05/20 04:29:57;;;;;;;58.80;38.70;;;10.20;99.90;;;;;;4981555;28;20474;-68
2021/05/20 04:32:24;;;;;;;53.00;38.27;;;10.10;99.90;;;;;;4981367;28;20962;-67
2021/05/20 04:34:50;;;;;;;53.63;38.30;;;10.20;99.90;;;;;;4981290;28;20504;-67
2021/05/20 04:37:16;;;;;;;57.30;40.73;;;10.30;99.90;;;;;;4981617;28;20518;-67
2021/05/20 04:39:43;;;;;;;50.13;34.67;;;10.30;99.90;;;;;;4981316;28;20482;-67
2021/05/20 04:42:09;;;;;;;51.20;35.30;;;10.30;99.90;;;;;;4981054;28;20542;-67
2021/05/20 04:44:36;;;;;;;58.63;39.17;;;10.30;99.90;;;;;;4981478;28;20540;-67
2021/05/20 04:47:02;;;;;;;55.80;39.67;;;10.30;99.90;;;;;;4981754;28;20443;-67
2021/05/20 04:49:28;;;;;;;52.00;35.60;;;10.40;99.90;;;;;;4981695;28;20475;-71
2021/05/20 04:51:55;;;;;;;47.77;35.00;;;10.40;99.90;;;;;;4982170;28;20454;-65
2021/05/20 04:54:21;;;;;;;55.90;37.63;;;10.50;99.90;;;;;;4981533;28;20451;-68
2021/05/20 04:56:47;;;;;;;53.37;36.40;;;10.30;99.90;;;;;;4981630;28;21403;-68
2021/05/20 04:59:13;;;;;;;51.13;37.90;;;10.30;99.90;;;;;;4981221;28;21176;-67
2021/05/20 05:01:40;;;;;;;56.13;38.80;;;10.30;99.90;;;;;;4981349;28;20575;-66
2021/05/20 05:04:06;;;;;;;62.87;39.93;;;10.30;99.90;;;;;;4981456;28;20455;-68
2021/05/20 05:06:32;;;;;;;52.87;36.30;;;10.30;99.90;;;;;;4981234;28;20450;-67
2021/05/20 05:08:59;;;;;;;57.13;37.40;;;10.40;99.90;;;;;;4980961;28;20450;-68
2021/05/20 05:11:25;;;;;;;54.57;37.30;;;10.40;99.90;;;;;;4980968;28;20466;-68
2021/05/20 05:13:51;;;;;;;59.10;41.00;;;10.40;99.90;;;;;;4981175;28;20451;-69
2021/05/20 05:16:17;;;;;;;56.80;36.70;;;10.50;99.90;;;;;;4981352;28;20486;-67
2021/05/20 05:18:44;;;;;;;56.80;38.07;;;10.40;99.90;;;;;;5014231;23;21174;-62
2021/05/20 05:21:11;;;;;;;61.47;43.27;;;10.40;99.90;;;;;;5004514;28;20450;-63
2021/05/20 05:23:38;;;;;;;55.73;41.00;;;10.50;99.90;;;;;;5011987;28;20446;-63
2021/05/20 05:26:04;;;;;;;58.43;41.13;;;10.50;99.90;;;;;;5011774;28;20917;-62
2021/05/20 05:28:30;;;;;;;64.60;43.20;;;10.70;99.90;;;;;;5011613;28;20473;-63
2021/05/20 05:30:57;;;;;;;61.23;40.93;;;10.70;99.90;;;;;;5011659;28;20492;-64
2021/05/20 05:33:23;;;;;;;64.03;43.50;;;10.80;99.90;;;;;;5011655;28;20446;-63
2021/05/20 05:35:50;;;;;;;57.47;39.30;;;10.90;99.90;;;;;;5011656;28;20446;-63
2021/05/20 05:38:16;;;;;;;55.40;41.73;;;10.90;99.90;;;;;;5011517;28;20501;-63
2021/05/20 05:40:43;;;;;;;55.57;43.43;;;11.00;99.90;;;;;;5011672;28;20446;-63
2021/05/20 05:43:09;;;;;;;51.63;41.30;;;10.90;99.90;;;;;;5011614;28;20863;-63
2021/05/20 05:45:35;;;;;;;53.27;39.80;;;10.90;99.90;;;;;;5011715;28;20502;-62
2021/05/20 05:48:01;;;;;;;52.90;38.53;;;10.80;99.90;;;;;;5011290;28;20458;-62
2021/05/20 05:50:28;;;;;;;53.33;38.80;;;10.70;99.90;;;;;;5011628;28;20442;-63
2021/05/20 05:52:55;;;;;;;59.37;44.60;;;10.80;99.90;;;;;;5013147;28;20454;-62
2021/05/20 05:55:21;;;;;;;51.83;42.90;;;11.00;99.90;;;;;;5015763;28;20446;-63
2021/05/20 05:57:47;;;;;;;54.23;43.63;;;11.00;99.90;;;;;;5015240;28;20485;-63
2021/05/20 06:00:14;;;;;;;53.03;42.07;;;11.10;99.90;;;;;;5015636;28;20468;-62
2021/05/20 06:02:42;;;;;;;52.63;41.77;;;11.20;99.90;;;;;;5015585;28;20445;-62
2021/05/20 06:05:10;;;;;;;53.93;43.97;;;11.30;99.90;;;;;;5015326;28;20450;-62
2021/05/20 06:07:36;;;;;;;51.80;42.53;;;11.50;99.90;;;;;;5015268;28;20553;-63
2021/05/20 06:10:04;;;;;;;54.10;45.53;;;11.60;99.90;;;;;;5015364;28;20450;-62
2021/05/20 06:12:30;;;;;;;55.70;44.40;;;11.70;99.90;;;;;;5015673;28;20748;-62
2021/05/20 06:14:56;;;;;;;54.90;43.80;;;11.70;99.90;;;;;;5015288;28;20437;-62
2021/05/20 06:17:23;;;;;;;60.30;45.10;;;11.70;99.90;;;;;;5015076;28;20525;-62
2021/05/20 06:19:49;;;;;;;55.57;45.30;;;11.60;99.90;;;;;;5015085;28;20499;-63
2021/05/20 06:22:15;;;;;;;53.90;42.80;;;11.60;99.90;;;;;;5015195;28;20952;-63
2021/05/20 06:24:41;;;;;;;59.77;44.40;;;11.50;99.90;;;;;;5015124;28;20452;-64
2021/05/20 06:27:09;;;;;;;57.67;44.17;;;11.60;99.90;;;;;;5015186;28;20446;-63
2021/05/20 06:29:35;;;;;;;59.27;40.90;;;11.70;99.90;;;;;;5014791;28;20996;-62
2021/05/20 06:32:01;;;;;;;55.93;42.30;;;11.70;99.90;;;;;;5015086;28;20453;-61
2021/05/20 06:34:27;;;;;;;59.57;45.10;;;11.90;99.90;;;;;;5014986;28;20532;-62
2021/05/20 06:36:56;;;;;;;57.23;45.10;;;12.10;99.90;;;;;;5015002;28;20903;-63
2021/05/20 06:39:23;;;;;;;51.43;44.17;;;12.20;99.90;;;;;;5014657;28;20528;-61
2021/05/20 06:41:49;;;;;;;56.23;46.80;;;12.30;99.90;;;;;;5014782;28;20457;-63
2021/05/20 06:44:16;;;;;;;53.50;44.77;;;12.50;99.90;;;;;;5014836;28;20449;-61
2021/05/20 06:46:42;;;;;;;55.90;46.60;;;12.60;99.90;;;;;;5014649;28;20957;-62
2021/05/20 06:49:08;;;;;;;54.90;45.27;;;12.60;99.90;;;;;;5014514;28;20509;-62
2021/05/20 06:51:35;;;;;;;52.10;44.90;;;12.70;99.90;;;;;;5014659;28;20446;-63
2021/05/20 06:54:01;;;;;;;51.93;43.40;;;12.80;99.90;;;;;;5014643;28;20956;-61
2021/05/20 06:56:29;;;;;;;49.93;44.43;;;12.90;99.90;;;;;;5014480;28;20842;-63
2021/05/20 07:01:45;;;;;;;50.93;45.37;;;12.90;99.90;;;;;;5014530;28;20426;-62
2021/05/20 07:04:11;;;;;;;50.13;44.73;;;13.00;99.90;;;;;;5013912;28;20454;-63
2021/05/20 07:06:37;;;;;;;52.20;45.93;;;12.90;99.90;;;;;;5014454;28;20438;-63
2021/05/20 07:09:05;;;;;;;56.33;50.17;;;12.80;99.90;;;;;;5014000;28;20526;-63
2021/05/20 07:11:31;;;;;;;53.93;47.03;;;12.80;99.90;;;;;;5014388;28;20446;-63
2021/05/20 07:13:58;;;;;;;56.60;45.90;;;12.70;99.90;;;;;;5014219;28;20457;-64
2021/05/20 07:16:24;;;;;;;55.87;46.67;;;12.60;99.90;;;;;;5014095;28;20477;-63
2021/05/20 07:18:51;;;;;;;54.03;46.27;;;12.40;99.90;;;;;;5013858;28;20500;-64
2021/05/20 07:21:17;;;;;;;55.80;47.67;;;12.50;99.90;;;;;;5014311;28;20446;-64
2021/05/20 07:23:44;;;;;;;49.13;43.87;;;12.70;99.90;;;;;;5014169;28;20446;-64
2021/05/20 07:26:10;;;;;;;51.50;43.97;;;12.80;99.90;;;;;;5014104;28;20438;-63
2021/05/20 07:28:36;;;;;;;47.13;42.03;;;13.10;99.90;;;;;;5013758;28;21092;-64
2021/05/20 07:31:02;;;;;;;49.00;43.73;;;13.30;99.90;;;;;;5013828;28;20454;-64
2021/05/20 07:33:30;;;;;;;46.70;41.90;;;13.60;99.90;;;;;;5013839;28;20468;-64
2021/05/20 07:35:57;;;;;;;48.27;43.13;;;13.70;99.90;;;;;;5013753;28;20461;-63
2021/05/20 07:38:23;;;;;;;47.50;42.37;;;13.90;99.90;;;;;;5013541;28;20489;-64
2021/05/20 07:40:49;;;;;;;53.00;44.30;;;14.10;99.90;;;;;;5013736;28;20453;-64
2021/05/20 07:43:15;;;;;;;48.60;43.60;;;14.10;99.90;;;;;;5013830;28;20453;-64
2021/05/20 07:45:42;;;;;;;46.20;41.30;;;14.10;99.90;;;;;;5013491;28;20494;-64
2021/05/20 07:48:08;;;;;;;47.30;42.67;;;14.20;99.90;;;;;;5013279;28;20461;-64
2021/05/20 07:50:34;;;;;;;44.90;40.53;;;14.10;99.90;;;;;;5013681;28;20991;-65
2021/05/20 07:53:01;;;;;;;48.37;43.47;;;14.30;99.90;;;;;;5013339;28;20446;-64
2021/05/20 07:55:27;;;;;;;47.27;42.30;;;14.50;99.90;;;;;;5013415;28;20600;-64
2021/05/20 07:57:54;;;;;;;46.50;41.80;;;14.70;99.90;;;;;;5012988;28;20489;-64
2021/05/20 08:00:22;;;;;;;45.93;41.40;;;15.00;99.90;;;;;;5013181;28;20961;-65
2021/05/20 08:02:51;;;;;;;47.30;42.70;;;15.40;99.90;;;;;;5013365;28;20438;-64
2021/05/20 08:05:25;;;;;;;46.50;42.07;;;15.80;99.90;;;;;;5013251;28;20458;-63
2021/05/20 08:07:55;;;;;;;45.23;41.03;;;15.80;99.90;;;;;;5012997;28;20855;-64
2021/05/20 08:10:40;;;;;;;46.33;41.70;;;16.00;99.90;;;;;;5013230;28;20449;-63
2021/05/20 08:13:07;;;;;;;46.17;41.80;;;16.00;99.90;;;;;;5013135;28;20814;-64
2021/05/20 08:15:34;;;;;;;45.10;41.13;;;16.30;99.90;;;;;;5012475;28;20446;-63
2021/05/20 08:18:00;;;;;;;45.63;41.57;;;16.30;99.90;;;;;;5012067;28;21016;-64
2021/05/20 08:20:26;;;;;;;44.07;40.10;;;16.20;99.90;;;;;;5012919;28;20972;-64
2021/05/20 08:22:52;;;;;;;46.10;41.00;;;16.00;99.90;;;;;;5012828;28;20858;-64
2021/05/20 08:25:19;;;;;;;43.63;39.80;;;15.60;99.90;;;;;;5012852;28;20454;-63
2021/05/20 08:27:46;;;;;;;43.30;39.30;;;15.40;99.90;;;;;;5012858;28;20825;-63
2021/05/20 08:30:13;;;;;;;36.87;33.93;;;15.50;99.90;;;;;;5012603;28;20622;-64
2021/05/20 08:32:39;;;;;;;38.87;35.57;;;15.80;99.90;;;;;;5012658;28;20449;-64
2021/05/20 08:35:07;;;;;;;34.53;31.90;;;16.20;99.90;;;;;;5012695;28;20449;-64
2021/05/20 08:37:34;;;;;;;35.80;33.30;;;16.40;99.90;;;;;;5012523;28;20478;-64
2021/05/20 08:40:01;;;;;;;35.27;32.50;;;16.60;99.90;;;;;;5012475;28;20875;-62
2021/05/20 08:42:27;;;;;;;36.30;33.50;;;16.90;99.90;;;;;;5012637;28;20844;-62
2021/05/20 08:44:54;;;;;;;39.87;36.67;;;17.20;99.90;;;;;;5012331;28;20453;-63
2021/05/20 08:47:20;;;;;;;34.87;32.40;;;17.60;99.90;;;;;;5012158;28;20794;-64
2021/05/20 08:49:47;;;;;;;35.47;32.87;;;18.00;99.90;;;;;;5011918;28;20445;-63
2021/05/20 08:52:14;;;;;;;37.47;34.50;;;18.10;99.30;;;;;;5012367;28;20816;-64
2021/05/20 08:54:40;;;;;;;35.33;32.83;;;18.20;98.50;;;;;;5012250;28;20445;-64
2021/05/20 08:57:07;;;;;;;35.13;32.47;;;18.40;96.60;;;;;;5012333;28;20840;-64
2021/05/20 08:59:33;;;;;;;34.50;32.00;;;18.30;95.00;;;;;;5011839;28;20539;-64
2021/05/20 09:02:00;;;;;;;36.83;34.23;;;18.30;95.00;;;;;;5012175;28;20863;-63
2021/05/20 09:04:26;;;;;;;36.37;33.60;;;18.40;94.20;;;;;;5012391;28;20442;-64
2021/05/20 09:06:55;;;;;;;33.30;31.10;;;18.20;92.20;;;;;;5012090;28;20453;-64
2021/05/20 09:09:24;;;;;;;35.53;33.00;;;18.40;92.90;;;;;;5011712;28;20548;-64
2021/05/20 09:11:52;;;;;;;32.83;30.77;;;18.50;92.40;;;;;;5011945;28;20875;-62
2021/05/20 09:14:30;;;;;;;34.60;32.30;;;18.70;92.70;;;;;;5011928;28;20453;-63
2021/05/20 09:17:13;;;;;;;36.30;33.80;;;18.70;91.50;;;;;;5011770;28;20489;-62
2021/05/20 09:19:41;;;;;;;33.97;31.77;;;18.90;90.80;;;;;;5011452;28;20469;-64
2021/05/20 09:22:08;;;;;;;34.13;31.63;;;19.30;87.50;;;;;;5011779;28;20457;-63
2021/05/20 09:24:46;;;;;;;33.63;31.03;;;19.40;86.10;;;;;;5011851;28;20457;-63
2021/05/20 09:27:30;;;;;;;33.77;31.53;;;19.50;82.20;;;;;;5011445;28;20461;-63
2021/05/20 09:30:20;;;;;;;31.90;29.80;;;19.80;81.50;;;;;;5011457;28;20826;-63
2021/05/20 09:32:52;;;;;;;33.30;31.20;;;19.70;78.10;;;;;;5011589;28;20457;-65
2021/05/20 09:35:20;;;;;;;32.40;30.20;;;19.50;78.60;;;;;;5011670;28;20454;-63
2021/05/20 09:37:56;;;;;;;34.00;31.73;;;19.30;76.70;;;;;;5011566;28;20481;-64
2021/05/20 09:40:25;;;;;;;31.40;29.20;;;19.00;76.90;;;;;;5011480;28;20445;-64
2021/05/20 09:42:51;;;;;;;32.53;30.60;;;18.60;78.20;;;;;;5011413;28;20446;-63
2021/05/20 09:45:21;;;;;;;33.10;30.90;;;18.30;78.80;;;;;;5011457;28;20862;-63
2021/05/20 09:47:49;;;;;;;30.80;28.80;;;18.40;83.50;;;;;;5011320;28;20477;-63
2021/05/20 09:50:19;;;;;;;31.33;29.30;;;18.40;83.30;;;;;;5011225;28;20445;-62
2021/05/20 09:52:46;;;;;;;31.20;29.20;;;18.20;83.70;;;;;;5011458;28;20454;-64
2021/05/20 09:55:24;;;;;;;30.83;28.83;;;17.90;86.90;;;;;;5011305;28;20948;-63
2021/05/20 09:57:51;;;;;;;30.07;28.17;;;17.90;88.10;;;;;;5011362;28;20491;-62
2021/05/20 10:00:20;;;;;;;32.00;29.23;;;17.70;90.60;;;;;;5011207;28;20454;-63
2021/05/20 10:02:48;;;;;;;30.10;28.30;;;17.50;90.00;;;;;;5011406;28;20446;-63
2021/05/20 10:05:26;;;;;;;32.47;29.80;;;17.50;90.20;;;;;;5011332;28;20500;-63
2021/05/20 10:07:52;;;;;;;30.80;28.77;;;17.60;90.50;;;;;;5011320;28;20543;-64
2021/05/20 10:10:20;;;;;;;31.73;29.30;;;17.90;90.90;;;;;;5011152;28;20449;-63
2021/05/20 10:12:47;;;;;;;30.10;28.10;;;18.00;90.90;;;;;;5011187;28;20450;-64
2021/05/20 10:15:17;;;;;;;30.00;28.20;;;18.30;91.00;;;;;;5011205;28;20446;-63
2021/05/20 10:17:44;;;;;;;31.67;29.57;;;18.70;87.80;;;;;;5011044;28;20490;-63
2021/05/20 10:20:14;;;;;;;29.13;27.43;;;19.10;85.30;;;;;;5010998;28;20468;-62
2021/05/20 10:22:40;;;;;;;28.80;27.13;;;19.40;83.20;;;;;;5011133;28;20443;-64
2021/05/20 10:25:08;;;;;;;29.27;27.50;;;19.50;83.00;;;;;;5011223;28;20446;-64
2021/05/20 10:27:36;;;;;;;27.80;26.30;;;20.20;75.50;;;;;;5011070;28;20492;-64
2021/05/20 10:30:05;;;;;;;29.10;27.50;;;20.70;74.40;;;;;;5010937;28;20445;-64
2021/05/20 10:32:32;;;;;;;26.93;25.43;;;21.10;71.10;;;;;;5011188;28;20446;-64
2021/05/20 10:35:06;;;;;;;26.37;25.00;;;21.00;68.50;;;;;;5011189;28;20441;-64
2021/05/20 10:37:41;;;;;;;26.13;24.80;;;21.10;67.70;;;;;;5011026;28;20476;-64
2021/05/20 10:40:28;;;;;;;26.20;24.70;;;21.40;63.50;;;;;;5012710;28;20820;-63
2021/05/20 10:43:10;;;;;;;26.57;25.13;;;21.70;62.30;;;;;;5014650;28;20454;-65
2021/05/20 10:45:38;;;;;;;25.67;24.47;;;21.70;59.30;;;;;;5014674;28;20442;-63
2021/05/20 10:48:21;;;;;;;25.80;24.50;;;21.90;58.30;;;;;;5014363;28;20984;-64
2021/05/20 10:51:13;;;;;;;25.23;23.50;;;22.00;57.40;;;;;;5014573;28;20441;-65
2021/05/20 10:53:54;;;;;;;25.67;24.37;;;21.60;54.60;;;;;;5014533;28;20446;-65
2021/05/20 10:56:53;;;;;;;23.93;22.80;;;21.80;53.70;;;;;;5014384;28;20448;-63
2021/05/20 10:59:41;;;;;;;26.53;24.93;;;22.00;54.80;;;;;;5014201;28;20465;-64
2021/05/20 11:02:46;;;;;;;26.47;24.93;;;21.50;54.10;;;;;;5014388;28;20446;-64
2021/05/20 11:05:51;;;;;;;26.73;25.27;;;21.10;55.00;;;;;;5008278;28;20458;-64
2021/05/20 11:08:59;;;;;;;25.00;23.80;;;21.00;54.70;;;;;;4972724;28;20471;-64
2021/05/20 11:11:48;;;;;;;25.30;23.87;;;21.00;54.10;;;;;;5014068;28;20481;-64
2021/05/20 11:14:38;;;;;;;23.77;22.60;;;21.60;54.20;;;;;;5014147;28;20442;-64
2021/05/20 11:17:36;;;;;;;23.53;22.37;;;22.40;50.80;;;;;;5014132;28;20528;-64
2021/05/20 11:20:51;;;;;;;25.33;24.10;;;23.40;48.60;;;;;;5038525;23;20478;-67
2021/05/20 11:23:26;;;;;;;23.83;22.70;;;23.70;50.10;;;;;;4994526;28;20442;-67
2021/05/20 11:26:05;;;;;;;22.97;21.97;;;23.50;46.90;;;;;;4994440;28;20976;-66
2021/05/20 11:28:40;;;;;;;23.37;22.30;;;24.20;46.60;;;;;;4994190;28;20469;-66
2021/05/20 11:31:06;;;;;;;23.10;22.00;;;23.70;48.60;;;;;;4994428;28;20450;-66
2021/05/20 11:33:37;;;;;;;24.57;23.47;;;23.80;47.60;;;;;;4994340;28;20458;-67
2021/05/20 11:36:14;;;;;;;24.00;22.60;;;24.20;46.90;;;;;;4994250;28;20505;-67
2021/05/20 11:38:58;;;;;;;23.83;22.80;;;24.50;45.00;;;;;;4993985;28;20475;-67
2021/05/20 11:41:25;;;;;;;23.73;22.73;;;25.70;43.80;;;;;;4994154;28;20454;-67
2021/05/20 11:44:04;;;;;;;23.40;22.50;;;25.30;42.90;;;;;;4994105;28;20451;-67
2021/05/20 11:46:30;;;;;;;23.30;22.30;;;26.70;43.20;;;;;;4994113;28;20734;-67
2021/05/20 11:49:02;;;;;;;24.50;23.40;;;29.10;41.00;;;;;;4993822;28;20521;-67
2021/05/20 11:51:46;;;;;;;23.53;22.53;;;29.30;37.20;;;;;;4993854;28;20465;-67
2021/05/20 11:54:15;;;;;;;25.03;23.93;;;28.60;37.40;;;;;;4994235;28;20505;-67
2021/05/20 11:56:44;;;;;;;22.90;21.90;;;30.20;35.10;;;;;;4993862;28;20839;-67
2021/05/20 11:59:12;;;;;;;23.40;22.50;;;30.50;35.10;;;;;;4993693;28;20985;-67
2021/05/20 12:01:38;;;;;;;23.50;22.70;;;34.10;31.90;;;;;;4993744;28;20446;-67
2021/05/20 12:04:06;;;;;;;23.73;22.67;;;35.40;28.80;;;;;;4993758;28;20454;-67
2021/05/20 12:06:33;;;;;;;22.90;22.00;;;33.50;28.80;;;;;;4993595;28;20453;-67
2021/05/20 12:09:14;;;;;;;23.47;22.40;;;32.70;28.70;;;;;;4993210;28;20470;-67
2021/05/20 12:11:42;;;;;;;23.00;22.10;;;34.60;28.60;;;;;;4993682;28;20545;-67
2021/05/20 12:14:33;;;;;;;23.27;21.90;;;34.40;27.70;;;;;;4993579;28;20937;-68
2021/05/20 12:17:16;;;;;;;22.07;21.27;;;36.30;27.00;;;;;;4993518;28;20532;-67
2021/05/20 12:19:46;;;;;;;23.77;22.73;;;37.30;25.70;;;;;;4993083;28;20285;-68
2021/05/20 12:22:18;;;;;;;23.90;22.60;;;36.80;24.80;;;;;;4993544;28;20203;-67
2021/05/20 12:24:46;;;;;;;22.63;21.73;;;35.10;25.30;;;;;;4993440;28;20211;-67
2021/05/20 12:27:22;;;;;;;23.10;22.20;;;36.60;26.50;;;;;;4993385;28;20439;-68
2021/05/20 12:29:51;;;;;;;23.80;22.90;;;37.40;25.30;;;;;;4992976;28;20775;-68
2021/05/20 12:32:25;;;;;;;24.05;22.75;;;36.80;25.00;;;;;;4993096;28;20214;-67
2021/05/20 12:35:07;;;;;;;23.52;22.63;;;37.30;25.50;;;;;;4993181;28;20214;-67
2021/05/20 12:37:40;;;;;;;23.85;22.95;;;37.90;24.30;;;;;;4993088;28;20586;-67
2021/05/20 12:40:10;;;;;;;23.70;22.80;;;37.50;23.40;;;;;;4992786;28;20234;-68